Cochise — WDD8952 — position and weather

sailwx.info

Track history (hours):
 
Tides and Currents Weather Stations Pressure Air Temp Water Temp Dewpoint Dewpoint Depression Visibility Wind Speed Wind Dir Waves Ship Positions

Cochise

Owner: Sause Bros, Coos Bay, OR. More information available from US FCC via Universal Licensing System and Coast Guard Vessel Documentation Center.

Last reported at 2015-Jul-28 14:31 UTC. Time now 2015-Jul-28 15:21 UTC.
Position N 37°54' W 122°26'.

Length 32 m; draft 4.8 m.

Type: Towing. MMSI: 367304990.

Date/timePositionNaut miles runAvg speedWind from/ knotsBaromVisibWave heightAir tempDewpointWater temp
2015-Jul-28 14:31N 37°54' W 122°26'5 5.6
2015-Jul-28 13:33N 37°49' W 122°24'3 2.7
2015-Jul-28 12:32N 37°46' W 122°23'0 0.0
2015-Jul-28 11:32N 37°46' W 122°23'0 0.0
2015-Jul-28 10:32N 37°46' W 122°23'0 0.0
2015-Jul-28 09:32N 37°46' W 122°23'0 0.0
2015-Jul-28 08:32N 37°46' W 122°23'0 0.0
2015-Jul-28 07:32N 37°46' W 122°23'0 0.0
2015-Jul-28 06:32N 37°46' W 122°23'0 0.0
2015-Jul-28 05:32N 37°46' W 122°23'0 0.0
2015-Jul-28 04:32N 37°46' W 122°23'0 0.0
2015-Jul-28 03:32N 37°46' W 122°23'0 0.0
2015-Jul-28 02:32N 37°46' W 122°23'3 3.2
2015-Jul-28 01:33N 37°48' W 122°19'0 0.0
2015-Jul-28 00:33N 37°48' W 122°20'0 0.0
2015-Jul-27 23:30N 37°48' W 122°20'0 0.0
2015-Jul-27 22:33N 37°48' W 122°20'0 0.0
2015-Jul-27 21:33N 37°48' W 122°20'0 0.0
2015-Jul-27 20:33N 37°48' W 122°19'0 0.0
2015-Jul-27 19:33N 37°48' W 122°19'0 0.0
2015-Jul-27 18:33N 37°48' W 122°19'0 0.0
2015-Jul-27 17:33N 37°48' W 122°19'0 0.0
2015-Jul-27 16:33N 37°48' W 122°19'0 0.0
2015-Jul-27 15:33N 37°48' W 122°20'0 0.0
2015-Jul-27 14:33N 37°48' W 122°19'3 3.0
2015-Jul-27 13:32N 37°46' W 122°23'0 0.0
2015-Jul-27 12:32N 37°46' W 122°23'0 0.0
2015-Jul-27 11:32N 37°46' W 122°23'0 0.0
2015-Jul-27 10:32N 37°46' W 122°23'0 0.0
2015-Jul-27 09:32N 37°46' W 122°23'0 0.0
2015-Jul-27 08:32N 37°46' W 122°23'0 0.0
2015-Jul-27 07:32N 37°46' W 122°23'0 0.0
2015-Jul-27 06:32N 37°46' W 122°23'0 0.0
2015-Jul-27 05:32N 37°46' W 122°23'0 0.0
2015-Jul-27 04:32N 37°46' W 122°23'0 0.0
2015-Jul-27 03:33N 37°46' W 122°23'3 3.1
2015-Jul-27 02:33N 37°48' W 122°19'1 1.0
2015-Jul-27 01:33N 37°48' W 122°21'1 0.6
2015-Jul-27 00:33N 37°47' W 122°21'2 2.0
2015-Jul-26 23:33N 37°46' W 122°23'0 0.0
2015-Jul-26 22:33N 37°46' W 122°23'0 0.0
2015-Jul-26 21:33N 37°46' W 122°23'0 0.0
2015-Jul-26 20:33N 37°46' W 122°23'0 0.0
2015-Jul-26 19:33N 37°46' W 122°23'0 0.0
2015-Jul-26 18:33N 37°46' W 122°23'0 0.0
2015-Jul-26 17:33N 37°46' W 122°23'0 0.0
2015-Jul-26 16:33N 37°46' W 122°23'0 0.0
2015-Jul-26 15:33N 37°46' W 122°23'0 0.0
2015-Jul-26 14:33N 37°46' W 122°23'0 0.0
2015-Jul-26 13:33N 37°46' W 122°23'0 0.0
2015-Jul-26 12:33N 37°46' W 122°23'0 0.0
2015-Jul-26 11:33N 37°46' W 122°23'0 0.0
2015-Jul-26 10:33N 37°46' W 122°23'0 0.0
2015-Jul-26 09:33N 37°46' W 122°23'0 0.0
2015-Jul-26 08:33N 37°46' W 122°23'0 0.0
2015-Jul-26 07:33N 37°46' W 122°23'0 0.0
2015-Jul-26 06:33N 37°46' W 122°23'0 0.0
2015-Jul-26 05:33N 37°46' W 122°23'0 0.0
2015-Jul-26 04:33N 37°46' W 122°23'0 0.0
2015-Jul-26 03:33N 37°46' W 122°23'0 0.0
2015-Jul-26 02:33N 37°46' W 122°23'0 0.0
2015-Jul-26 01:33N 37°46' W 122°23'0 0.0
2015-Jul-26 00:33N 37°46' W 122°23'0 0.0
2015-Jul-25 23:33N 37°46' W 122°23'0 0.0
2015-Jul-25 22:34N 37°46' W 122°23'0 0.0
2015-Jul-25 21:33N 37°46' W 122°23'0 0.0
2015-Jul-25 20:33N 37°46' W 122°23'0 0.0
2015-Jul-25 19:33N 37°46' W 122°23'0 0.0
2015-Jul-25 18:33N 37°46' W 122°23'0 0.0
2015-Jul-25 17:33N 37°46' W 122°23'0 0.0
2015-Jul-25 16:33N 37°46' W 122°23'0 0.0
2015-Jul-25 15:33N 37°46' W 122°23'0 0.0
2015-Jul-25 14:33N 37°46' W 122°23'0 0.0
2015-Jul-25 13:33N 37°46' W 122°23'0 0.0
2015-Jul-25 12:33N 37°46' W 122°23'0 0.0
2015-Jul-25 11:33N 37°46' W 122°23'0 0.0
2015-Jul-25 10:34N 37°46' W 122°23'0 0.0
2015-Jul-25 09:33N 37°46' W 122°23'0 0.0
2015-Jul-25 08:33N 37°46' W 122°23'0 0.0
2015-Jul-25 07:33N 37°46' W 122°23'0 0.0
2015-Jul-25 06:33N 37°46' W 122°23'0 0.0
2015-Jul-25 05:33N 37°46' W 122°23'0 0.0
2015-Jul-25 04:33N 37°46' W 122°23'5 5.2
2015-Jul-25 03:33N 37°52' W 122°24'4 3.7
2015-Jul-25 02:29N 37°55' W 122°22'0 0.0
2015-Jul-25 01:29N 37°55' W 122°22'0 0.0
2015-Jul-25 00:32N 37°55' W 122°22'0 0.0
2015-Jul-24 23:29N 37°55' W 122°22'0 0.0
2015-Jul-24 22:29N 37°55' W 122°22'0 0.0
2015-Jul-24 21:29N 37°55' W 122°22'2 2.7
2015-Jul-24 20:33N 37°54' W 122°25'7 7.0
2015-Jul-24 19:31N 37°49' W 122°19'0 0.0
2015-Jul-24 18:28N 37°49' W 122°19'0 0.0
2015-Jul-24 17:31N 37°49' W 122°19'0 0.0
2015-Jul-24 16:33N 37°49' W 122°19'0 0.0
2015-Jul-24 15:33N 37°49' W 122°19'0 0.0
2015-Jul-24 14:33N 37°49' W 122°19'4 4.0
2015-Jul-24 13:33N 37°47' W 122°23'0 0.2
2015-Jul-24 12:32N 37°46' W 122°23'0 0.0
2015-Jul-24 11:32N 37°46' W 122°23'0 0.0
2015-Jul-24 10:32N 37°46' W 122°23'0 0.0
2015-Jul-24 09:32N 37°46' W 122°23'0 0.0
2015-Jul-24 08:32N 37°46' W 122°23'0 0.0
2015-Jul-24 07:32N 37°46' W 122°23'0 0.0
2015-Jul-24 06:32N 37°46' W 122°23'0 0.0
2015-Jul-24 05:32N 37°46' W 122°23'0 0.0
2015-Jul-24 04:32N 37°46' W 122°23'0 0.0
2015-Jul-24 03:32N 37°46' W 122°23'0 0.0
2015-Jul-24 02:32N 37°46' W 122°23'0 0.0
2015-Jul-24 01:32N 37°46' W 122°23'0 0.0
2015-Jul-24 00:32N 37°46' W 122°23'0 0.0
2015-Jul-23 23:32N 37°46' W 122°23'0 0.0
2015-Jul-23 22:32N 37°46' W 122°23'0 0.0
2015-Jul-23 21:32N 37°46' W 122°23'0 0.0
2015-Jul-23 20:32N 37°46' W 122°23'0 0.0
2015-Jul-23 19:32N 37°46' W 122°23'0 0.0
2015-Jul-23 18:32N 37°46' W 122°23'0 0.2
2015-Jul-23 17:33N 37°47' W 122°23'8 7.6
2015-Jul-23 16:33N 37°54' W 122°22'3 3.3
2015-Jul-23 15:33N 37°51' W 122°24'5 4.5
2015-Jul-23 14:33N 37°49' W 122°19'0 0.5
2015-Jul-23 13:33N 37°49' W 122°20'2 2.1
2015-Jul-23 12:33N 37°47' W 122°21'1 1.4
2015-Jul-23 11:31N 37°46' W 122°23'0 0.0
2015-Jul-23 10:31N 37°46' W 122°23'0 0.0
2015-Jul-23 09:31N 37°46' W 122°23'0 0.0
2015-Jul-23 08:32N 37°46' W 122°23'0 0.0
2015-Jul-23 07:28N 37°46' W 122°23'0 0.0
2015-Jul-23 06:31N 37°46' W 122°23'0 0.0
2015-Jul-23 05:31N 37°46' W 122°23'0 0.0
2015-Jul-23 04:31N 37°46' W 122°23'0 0.0
2015-Jul-23 03:31N 37°46' W 122°23'0 0.0
2015-Jul-23 02:28N 37°46' W 122°23'0 0.0
2015-Jul-23 01:31N 37°46' W 122°23'0 0.0
2015-Jul-23 00:31N 37°46' W 122°23'0 0.0
2015-Jul-22 23:31N 37°46' W 122°23'0 0.0
2015-Jul-22 22:31N 37°46' W 122°23'0 0.0
2015-Jul-22 21:31N 37°46' W 122°23'0 0.1
2015-Jul-22 20:34N 37°47' W 122°23'8 8.0
2015-Jul-22 19:34N 37°54' W 122°26'8 7.9
2015-Jul-22 18:32N 37°46' W 122°23'0 0.0
2015-Jul-22 17:32N 37°46' W 122°23'0 0.0
2015-Jul-22 16:32N 37°46' W 122°23'0 0.0
2015-Jul-22 15:32N 37°46' W 122°23'0 0.0
2015-Jul-22 14:32N 37°46' W 122°23'0 0.0
2015-Jul-22 13:32N 37°46' W 122°23'0 0.0
2015-Jul-22 12:32N 37°46' W 122°23'0 0.0
2015-Jul-22 11:32N 37°46' W 122°23'0 0.0
2015-Jul-22 10:32N 37°46' W 122°23'0 0.0
2015-Jul-22 09:32N 37°46' W 122°23'0 0.0
2015-Jul-22 08:32N 37°46' W 122°23'0 0.0
2015-Jul-22 07:32N 37°46' W 122°23'0 0.0
2015-Jul-22 06:32N 37°46' W 122°23'1 0.5
2015-Jul-22 05:34N 37°47' W 122°23'5 5.4
2015-Jul-22 04:33N 37°49' W 122°29'6 6.4
2015-Jul-22 03:33N 37°46' W 122°36'7 7.1
2015-Jul-22 02:34N 37°42' W 122°44'7 7.3
2015-Jul-22 01:33N 37°38' W 122°51'7 7.0
2015-Jul-22 00:33N 37°34' W 122°59'6 6.2
2015-Jul-21 23:33N 37°29' W 123°03'6 6.2
2015-Jul-21 22:33N 37°23' W 123°02'8 7.7
2015-Jul-21 21:31N 37°15' W 122°59'11 8.4
2015-Jul-21 20:09N 37°05' W 122°54'6 8.7
2015-Jul-21 19:27N 36°59' W 122°51'17 8.7
2015-Jul-21 17:30N 36°45' W 122°40'9 9.0
2015-Jul-21 16:33N 36°37' W 122°36'9 9.2
2015-Jul-21 15:33N 36°28' W 122°31'9 9.0
2015-Jul-21 14:33N 36°20' W 122°26'9 8.8
2015-Jul-21 13:31N 36°12' W 122°21'8 8.5
2015-Jul-21 12:33N 36°05' W 122°16'9 8.6
2015-Jul-21 11:33N 35°58' W 122°11'209 9.0
2015-Jul-20 12:11N 33°50' W 118°48'610.2
2015-Jul-20 11:33N 33°50' W 118°41'9 8.6
2015-Jul-20 10:29N 33°52' W 118°30'3 3.6
2015-Jul-20 09:33N 33°55' W 118°27'0 0.1
2015-Jul-20 08:33N 33°55' W 118°27'0 0.0
2015-Jul-20 07:31N 33°55' W 118°27'0 0.0
2015-Jul-20 06:31N 33°55' W 118°27'0 0.0
2015-Jul-20 05:31N 33°55' W 118°27'0 0.0
2015-Jul-20 04:31N 33°55' W 118°27'0 0.0
2015-Jul-20 03:31N 33°55' W 118°27'0 0.0
2015-Jul-20 02:31N 33°55' W 118°27'0 0.0
2015-Jul-20 01:31N 33°55' W 118°27'0 0.0
2015-Jul-20 00:31N 33°55' W 118°27'0 0.0
2015-Jul-19 23:31N 33°55' W 118°27'0 0.0
2015-Jul-19 22:31N 33°55' W 118°27'0 0.0
2015-Jul-19 21:31N 33°55' W 118°27'0 0.1
2015-Jul-19 20:33N 33°55' W 118°27'33 5.6
2015-Jul-19 14:33N 33°51' W 119°08'146 7.3
2015-Jul-18 18:32N 35°05' W 121°41'9 9.4
2015-Jul-18 17:33N 35°13' W 121°46'9 8.9
2015-Jul-18 16:32N 35°21' W 121°52'9 8.5
2015-Jul-18 15:31N 35°29' W 121°57'8 8.3
2015-Jul-18 14:33N 35°36' W 122°02'  
Track history (hours):
 
Tides and Currents Weather Stations Pressure Air Temp Water Temp Dewpoint Dewpoint Depression Visibility Wind Speed Wind Dir Waves Ship Positions

Cochise

Owner: Sause Bros, Coos Bay, OR. More information available from US FCC via Universal Licensing System and Coast Guard Vessel Documentation Center.

Last reported at 2015-Jul-28 14:31 UTC. Time now 2015-Jul-28 15:21 UTC.
Position N 37°54' W 122°26'.

Length 32 m; draft 4.8 m.

Type: Towing. MMSI: 367304990.

Date/timePositionNaut miles runAvg speedWind from/ knotsBaromVisibWave heightAir tempDewpointWater temp
2015-Jul-28 14:31N 37°54' W 122°26'5 5.6
2015-Jul-28 13:33N 37°49' W 122°24'3 2.7
2015-Jul-28 12:32N 37°46' W 122°23'0 0.0
2015-Jul-28 11:32N 37°46' W 122°23'0 0.0
2015-Jul-28 10:32N 37°46' W 122°23'0 0.0
2015-Jul-28 09:32N 37°46' W 122°23'0 0.0
2015-Jul-28 08:32N 37°46' W 122°23'0 0.0
2015-Jul-28 07:32N 37°46' W 122°23'0 0.0
2015-Jul-28 06:32N 37°46' W 122°23'0 0.0
2015-Jul-28 05:32N 37°46' W 122°23'0 0.0
2015-Jul-28 04:32N 37°46' W 122°23'0 0.0
2015-Jul-28 03:32N 37°46' W 122°23'0 0.0
2015-Jul-28 02:32N 37°46' W 122°23'3 3.2
2015-Jul-28 01:33N 37°48' W 122°19'0 0.0
2015-Jul-28 00:33N 37°48' W 122°20'0 0.0
2015-Jul-27 23:30N 37°48' W 122°20'0 0.0
2015-Jul-27 22:33N 37°48' W 122°20'0 0.0
2015-Jul-27 21:33N 37°48' W 122°20'0 0.0
2015-Jul-27 20:33N 37°48' W 122°19'0 0.0
2015-Jul-27 19:33N 37°48' W 122°19'0 0.0
2015-Jul-27 18:33N 37°48' W 122°19'0 0.0
2015-Jul-27 17:33N 37°48' W 122°19'0 0.0
2015-Jul-27 16:33N 37°48' W 122°19'0 0.0
2015-Jul-27 15:33N 37°48' W 122°20'0 0.0
2015-Jul-27 14:33N 37°48' W 122°19'3 3.0
2015-Jul-27 13:32N 37°46' W 122°23'0 0.0
2015-Jul-27 12:32N 37°46' W 122°23'0 0.0
2015-Jul-27 11:32N 37°46' W 122°23'0 0.0
2015-Jul-27 10:32N 37°46' W 122°23'0 0.0
2015-Jul-27 09:32N 37°46' W 122°23'0 0.0
2015-Jul-27 08:32N 37°46' W 122°23'0 0.0
2015-Jul-27 07:32N 37°46' W 122°23'0 0.0
2015-Jul-27 06:32N 37°46' W 122°23'0 0.0
2015-Jul-27 05:32N 37°46' W 122°23'0 0.0
2015-Jul-27 04:32N 37°46' W 122°23'0 0.0
2015-Jul-27 03:33N 37°46' W 122°23'3 3.1
2015-Jul-27 02:33N 37°48' W 122°19'1 1.0
2015-Jul-27 01:33N 37°48' W 122°21'1 0.6
2015-Jul-27 00:33N 37°47' W 122°21'2 2.0
2015-Jul-26 23:33N 37°46' W 122°23'0 0.0
2015-Jul-26 22:33N 37°46' W 122°23'0 0.0
2015-Jul-26 21:33N 37°46' W 122°23'0 0.0
2015-Jul-26 20:33N 37°46' W 122°23'0 0.0
2015-Jul-26 19:33N 37°46' W 122°23'0 0.0
2015-Jul-26 18:33N 37°46' W 122°23'0 0.0
2015-Jul-26 17:33N 37°46' W 122°23'0 0.0
2015-Jul-26 16:33N 37°46' W 122°23'0 0.0
2015-Jul-26 15:33N 37°46' W 122°23'0 0.0
2015-Jul-26 14:33N 37°46' W 122°23'0 0.0
2015-Jul-26 13:33N 37°46' W 122°23'0 0.0
2015-Jul-26 12:33N 37°46' W 122°23'0 0.0
2015-Jul-26 11:33N 37°46' W 122°23'0 0.0
2015-Jul-26 10:33N 37°46' W 122°23'0 0.0
2015-Jul-26 09:33N 37°46' W 122°23'0 0.0
2015-Jul-26 08:33N 37°46' W 122°23'0 0.0
2015-Jul-26 07:33N 37°46' W 122°23'0 0.0
2015-Jul-26 06:33N 37°46' W 122°23'0 0.0
2015-Jul-26 05:33N 37°46' W 122°23'0 0.0
2015-Jul-26 04:33N 37°46' W 122°23'0 0.0
2015-Jul-26 03:33N 37°46' W 122°23'0 0.0
2015-Jul-26 02:33N 37°46' W 122°23'0 0.0
2015-Jul-26 01:33N 37°46' W 122°23'0 0.0
2015-Jul-26 00:33N 37°46' W 122°23'0 0.0
2015-Jul-25 23:33N 37°46' W 122°23'0 0.0
2015-Jul-25 22:34N 37°46' W 122°23'0 0.0
2015-Jul-25 21:33N 37°46' W 122°23'0 0.0
2015-Jul-25 20:33N 37°46' W 122°23'0 0.0
2015-Jul-25 19:33N 37°46' W 122°23'0 0.0
2015-Jul-25 18:33N 37°46' W 122°23'0 0.0
2015-Jul-25 17:33N 37°46' W 122°23'0 0.0
2015-Jul-25 16:33N 37°46' W 122°23'0 0.0
2015-Jul-25 15:33N 37°46' W 122°23'0 0.0
2015-Jul-25 14:33N 37°46' W 122°23'0 0.0
2015-Jul-25 13:33N 37°46' W 122°23'0 0.0
2015-Jul-25 12:33N 37°46' W 122°23'0 0.0
2015-Jul-25 11:33N 37°46' W 122°23'0 0.0
2015-Jul-25 10:34N 37°46' W 122°23'0 0.0
2015-Jul-25 09:33N 37°46' W 122°23'0 0.0
2015-Jul-25 08:33N 37°46' W 122°23'0 0.0
2015-Jul-25 07:33N 37°46' W 122°23'0 0.0
2015-Jul-25 06:33N 37°46' W 122°23'0 0.0
2015-Jul-25 05:33N 37°46' W 122°23'0 0.0
2015-Jul-25 04:33N 37°46' W 122°23'5 5.2
2015-Jul-25 03:33N 37°52' W 122°24'4 3.7
2015-Jul-25 02:29N 37°55' W 122°22'0 0.0
2015-Jul-25 01:29N 37°55' W 122°22'0 0.0
2015-Jul-25 00:32N 37°55' W 122°22'0 0.0
2015-Jul-24 23:29N 37°55' W 122°22'0 0.0
2015-Jul-24 22:29N 37°55' W 122°22'0 0.0
2015-Jul-24 21:29N 37°55' W 122°22'2 2.7
2015-Jul-24 20:33N 37°54' W 122°25'7 7.0
2015-Jul-24 19:31N 37°49' W 122°19'0 0.0
2015-Jul-24 18:28N 37°49' W 122°19'0 0.0
2015-Jul-24 17:31N 37°49' W 122°19'0 0.0
2015-Jul-24 16:33N 37°49' W 122°19'0 0.0
2015-Jul-24 15:33N 37°49' W 122°19'0 0.0
2015-Jul-24 14:33N 37°49' W 122°19'4 4.0
2015-Jul-24 13:33N 37°47' W 122°23'0 0.2
2015-Jul-24 12:32N 37°46' W 122°23'0 0.0
2015-Jul-24 11:32N 37°46' W 122°23'0 0.0
2015-Jul-24 10:32N 37°46' W 122°23'0 0.0
2015-Jul-24 09:32N 37°46' W 122°23'0 0.0
2015-Jul-24 08:32N 37°46' W 122°23'0 0.0
2015-Jul-24 07:32N 37°46' W 122°23'0 0.0
2015-Jul-24 06:32N 37°46' W 122°23'0 0.0
2015-Jul-24 05:32N 37°46' W 122°23'0 0.0
2015-Jul-24 04:32N 37°46' W 122°23'0 0.0
2015-Jul-24 03:32N 37°46' W 122°23'0 0.0
2015-Jul-24 02:32N 37°46' W 122°23'0 0.0
2015-Jul-24 01:32N 37°46' W 122°23'0 0.0
2015-Jul-24 00:32N 37°46' W 122°23'0 0.0
2015-Jul-23 23:32N 37°46' W 122°23'0 0.0
2015-Jul-23 22:32N 37°46' W 122°23'0 0.0
2015-Jul-23 21:32N 37°46' W 122°23'0 0.0
2015-Jul-23 20:32N 37°46' W 122°23'0 0.0
2015-Jul-23 19:32N 37°46' W 122°23'0 0.0
2015-Jul-23 18:32N 37°46' W 122°23'0 0.2
2015-Jul-23 17:33N 37°47' W 122°23'8 7.6
2015-Jul-23 16:33N 37°54' W 122°22'3 3.3
2015-Jul-23 15:33N 37°51' W 122°24'5 4.5
2015-Jul-23 14:33N 37°49' W 122°19'0 0.5
2015-Jul-23 13:33N 37°49' W 122°20'2 2.1
2015-Jul-23 12:33N 37°47' W 122°21'1 1.4
2015-Jul-23 11:31N 37°46' W 122°23'0 0.0
2015-Jul-23 10:31N 37°46' W 122°23'0 0.0
2015-Jul-23 09:31N 37°46' W 122°23'0 0.0
2015-Jul-23 08:32N 37°46' W 122°23'0 0.0
2015-Jul-23 07:28N 37°46' W 122°23'0 0.0
2015-Jul-23 06:31N 37°46' W 122°23'0 0.0
2015-Jul-23 05:31N 37°46' W 122°23'0 0.0
2015-Jul-23 04:31N 37°46' W 122°23'0 0.0
2015-Jul-23 03:31N 37°46' W 122°23'0 0.0
2015-Jul-23 02:28N 37°46' W 122°23'0 0.0
2015-Jul-23 01:31N 37°46' W 122°23'0 0.0
2015-Jul-23 00:31N 37°46' W 122°23'0 0.0
2015-Jul-22 23:31N 37°46' W 122°23'0 0.0
2015-Jul-22 22:31N 37°46' W 122°23'0 0.0
2015-Jul-22 21:31N 37°46' W 122°23'0 0.1
2015-Jul-22 20:34N 37°47' W 122°23'8 8.0
2015-Jul-22 19:34N 37°54' W 122°26'8 7.9
2015-Jul-22 18:32N 37°46' W 122°23'0 0.0
2015-Jul-22 17:32N 37°46' W 122°23'0 0.0
2015-Jul-22 16:32N 37°46' W 122°23'0 0.0
2015-Jul-22 15:32N 37°46' W 122°23'0 0.0
2015-Jul-22 14:32N 37°46' W 122°23'0 0.0
2015-Jul-22 13:32N 37°46' W 122°23'0 0.0
2015-Jul-22 12:32N 37°46' W 122°23'0 0.0
2015-Jul-22 11:32N 37°46' W 122°23'0 0.0
2015-Jul-22 10:32N 37°46' W 122°23'0 0.0
2015-Jul-22 09:32N 37°46' W 122°23'0 0.0
2015-Jul-22 08:32N 37°46' W 122°23'0 0.0
2015-Jul-22 07:32N 37°46' W 122°23'0 0.0
2015-Jul-22 06:32N 37°46' W 122°23'1 0.5
2015-Jul-22 05:34N 37°47' W 122°23'5 5.4
2015-Jul-22 04:33N 37°49' W 122°29'6 6.4
2015-Jul-22 03:33N 37°46' W 122°36'7 7.1
2015-Jul-22 02:34N 37°42' W 122°44'7 7.3
2015-Jul-22 01:33N 37°38' W 122°51'7 7.0
2015-Jul-22 00:33N 37°34' W 122°59'6 6.2
2015-Jul-21 23:33N 37°29' W 123°03'6 6.2
2015-Jul-21 22:33N 37°23' W 123°02'8 7.7
2015-Jul-21 21:31N 37°15' W 122°59'11 8.4
2015-Jul-21 20:09N 37°05' W 122°54'6 8.7
2015-Jul-21 19:27N 36°59' W 122°51'17 8.7
2015-Jul-21 17:30N 36°45' W 122°40'9 9.0
2015-Jul-21 16:33N 36°37' W 122°36'9 9.2
2015-Jul-21 15:33N 36°28' W 122°31'9 9.0
2015-Jul-21 14:33N 36°20' W 122°26'9 8.8
2015-Jul-21 13:31N 36°12' W 122°21'8 8.5
2015-Jul-21 12:33N 36°05' W 122°16'9 8.6
2015-Jul-21 11:33N 35°58' W 122°11'209 9.0
2015-Jul-20 12:11N 33°50' W 118°48'610.2
2015-Jul-20 11:33N 33°50' W 118°41'9 8.6
2015-Jul-20 10:29N 33°52' W 118°30'3 3.6
2015-Jul-20 09:33N 33°55' W 118°27'0 0.1
2015-Jul-20 08:33N 33°55' W 118°27'0 0.0
2015-Jul-20 07:31N 33°55' W 118°27'0 0.0
2015-Jul-20 06:31N 33°55' W 118°27'0 0.0
2015-Jul-20 05:31N 33°55' W 118°27'0 0.0
2015-Jul-20 04:31N 33°55' W 118°27'0 0.0
2015-Jul-20 03:31N 33°55' W 118°27'0 0.0
2015-Jul-20 02:31N 33°55' W 118°27'0 0.0
2015-Jul-20 01:31N 33°55' W 118°27'0 0.0
2015-Jul-20 00:31N 33°55' W 118°27'0 0.0
2015-Jul-19 23:31N 33°55' W 118°27'0 0.0
2015-Jul-19 22:31N 33°55' W 118°27'0 0.0
2015-Jul-19 21:31N 33°55' W 118°27'0 0.1
2015-Jul-19 20:33N 33°55' W 118°27'33 5.6
2015-Jul-19 14:33N 33°51' W 119°08'146 7.3
2015-Jul-18 18:32N 35°05' W 121°41'9 9.4
2015-Jul-18 17:33N 35°13' W 121°46'9 8.9
2015-Jul-18 16:32N 35°21' W 121°52'9 8.5
2015-Jul-18 15:31N 35°29' W 121°57'8 8.3
2015-Jul-18 14:33N 35°36' W 122°02'  

Dump ship's entire track history